This is the latest recevied weather packets stored in our database for station/object SV2ASS-2. If no packets are shown the sender has not sent any weather packets the latest 10 day(s).
| Time | Temp. | Humidity | Pressure | Rain* | Wind** | Luminosity | Snow |
|---|---|---|---|---|---|---|---|
| 1777922864 | 15.56° C | 39% | 1019.8 hPa | - | - | - | - |
| 1777921964 | 15.56° C | 39% | 1019.9 hPa | - | - | - | - |
| 1777921064 | 17.78° C | 34% | 1019.9 hPa | - | - | - | - |
| 1777920164 | 18.33° C | 36% | 1019.7 hPa | - | - | - | - |
| 1777919264 | 16.11° C | 42% | 1019.6 hPa | - | - | - | - |
| 1777918364 | 16.11° C | 42% | 1019.2 hPa | - | - | - | - |
| 1777917464 | 16.67° C | 41% | 1019.1 hPa | - | - | - | - |
| 1777916564 | 17.22° C | 40% | 1018.9 hPa | - | - | - | - |
| 1777915663 | 17.22° C | 43% | 1018.8 hPa | - | - | - | - |
| 1777914763 | 18.33° C | 44% | 1018.8 hPa | - | - | - | - |
| 1777913863 | 18.89° C | 38% | 1018.6 hPa | - | - | - | - |
| 1777912963 | 19.44° C | 42% | 1018.5 hPa | - | - | - | - |
| 1777912063 | 20.56° C | 38% | 1018.5 hPa | - | - | - | - |
| 1777911163 | 21.11° C | 39% | 1018.3 hPa | - | - | - | - |
| 1777910263 | 21.67° C | 33% | 1018.2 hPa | - | - | - | - |
| 1777909363 | 21.67° C | 29% | 1018.2 hPa | - | - | - | - |
| 1777908463 | 22.22° C | 30% | 1018.2 hPa | - | - | - | - |
| 1777907562 | 22.22° C | 28% | 1018.2 hPa | - | - | - | - |
| 1777906665 | 22.78° C | 28% | 1018.4 hPa | - | - | - | - |
| 1777905765 | 22.22° C | 27% | 1018.5 hPa | - | - | - | - |
| 1777904865 | 22.22° C | 28% | 1018.7 hPa | - | - | - | - |
| 1777903965 | 22.22° C | 29% | 1018.7 hPa | - | - | - | - |
| 1777903065 | 22.22° C | 28% | 1018.9 hPa | - | - | - | - |
| 1777902165 | 22.22° C | 30% | 1019 hPa | - | - | - | - |
| 1777901265 | 22.22° C | 30% | 1019.3 hPa | - | - | - | - |
* Rain since midnight (hover to see other rain measurements)
** Current wind speed in m/s (hover to see current wind gust speed)